sensor_id;sensor_type;location;lat;lon;timestamp;pressure;altitude;pressure_sealevel;temperature;humidity
73455;BME280;61690;51.824;6.306;2023-04-10T00:00:18;102069.84;;;17.73;47.46
73455;BME280;61690;51.824;6.306;2023-04-10T00:02:44;102066.50;;;17.70;47.61
73455;BME280;61690;51.824;6.306;2023-04-10T00:05:11;102066.50;;;17.70;47.50
73455;BME280;61690;51.824;6.306;2023-04-10T00:07:36;102059.38;;;17.72;47.09
73455;BME280;61690;51.824;6.306;2023-04-10T00:10:02;102061.09;;;17.73;47.61
73455;BME280;61690;51.824;6.306;2023-04-10T00:12:27;102055.97;;;17.70;47.13
73455;BME280;61690;51.824;6.306;2023-04-10T00:14:53;102063.81;;;17.71;47.13
73455;BME280;61690;51.824;6.306;2023-04-10T00:17:18;102053.34;;;17.70;47.65
73455;BME280;61690;51.824;6.306;2023-04-10T00:19:44;102053.44;;;17.68;47.17
73455;BME280;61690;51.824;6.306;2023-04-10T00:22:12;102061.31;;;17.68;47.18
73455;BME280;61690;51.824;6.306;2023-04-10T00:24:38;102061.22;;;17.70;47.09
73455;BME280;61690;51.824;6.306;2023-04-10T00:27:03;102057.81;;;17.68;47.50
73455;BME280;61690;51.824;6.306;2023-04-10T00:29:28;102063.06;;;17.68;47.64
73455;BME280;61690;51.824;6.306;2023-04-10T00:31:53;102061.31;;;17.68;47.17
73455;BME280;61690;51.824;6.306;2023-04-10T00:34:22;102059.59;;;17.67;47.10
73455;BME280;61690;51.824;6.306;2023-04-10T00:36:47;102055.19;;;17.68;47.45
73455;BME280;61690;51.824;6.306;2023-04-10T00:39:13;102052.63;;;17.66;47.48
73455;BME280;61690;51.824;6.306;2023-04-10T00:41:39;102050.06;;;17.64;47.09
73455;BME280;61690;51.824;6.306;2023-04-10T00:44:04;102042.19;;;17.64;47.53
73455;BME280;61690;51.824;6.306;2023-04-10T00:46:30;102036.75;;;17.68;47.64
73455;BME280;61690;51.824;6.306;2023-04-10T00:48:56;102036.75;;;17.68;47.59
73455;BME280;61690;51.824;6.306;2023-04-10T00:51:21;102023.69;;;17.66;47.57
73455;BME280;61690;51.824;6.306;2023-04-10T00:53:49;102017.56;;;17.66;47.18
73455;BME280;61690;51.824;6.306;2023-04-10T00:56:16;102010.59;;;17.64;47.39
73455;BME280;61690;51.824;6.306;2023-04-10T00:58:42;102012.34;;;17.64;47.45
73455;BME280;61690;51.824;6.306;2023-04-10T01:01:09;102011.44;;;17.65;47.21
73455;BME280;61690;51.824;6.306;2023-04-10T01:03:35;102007.03;;;17.66;47.36
73455;BME280;61690;51.824;6.306;2023-04-10T01:06:28;102004.47;;;17.64;47.33
73455;BME280;61690;51.824;6.306;2023-04-10T01:09:52;101998.41;;;17.62;47.30
73455;BME280;61690;51.824;6.306;2023-04-10T01:15:11;101999.28;;;17.62;47.24
73455;BME280;61690;51.824;6.306;2023-04-10T01:17:49;101993.09;;;17.63;47.31
73455;BME280;61690;51.824;6.306;2023-04-10T01:25:47;101993.09;;;17.63;47.53
73455;BME280;61690;51.824;6.306;2023-04-10T01:30:50;101981.78;;;17.61;47.30
73455;BME280;61690;51.824;6.306;2023-04-10T01:33:18;101979.94;;;17.63;47.08
73455;BME280;61690;51.824;6.306;2023-04-10T01:35:49;101981.72;;;17.63;47.24
73455;BME280;61690;51.824;6.306;2023-04-10T01:38:18;101985.25;;;17.62;47.07
73455;BME280;61690;51.824;6.306;2023-04-10T01:40:50;101987.81;;;17.63;47.38
73455;BME280;61690;51.824;6.306;2023-04-10T01:43:19;101989.56;;;17.64;47.40
73455;BME280;61690;51.824;6.306;2023-04-10T01:45:47;101982.56;;;17.63;47.02
73455;BME280;61690;51.824;6.306;2023-04-10T01:48:13;101989.66;;;17.61;47.37
73455;BME280;61690;51.824;6.306;2023-04-10T01:50:42;101993.16;;;17.62;47.10
73455;BME280;61690;51.824;6.306;2023-04-10T01:53:08;101987.97;;;17.60;47.27
73455;BME280;61690;51.824;6.306;2023-04-10T01:55:35;101987.09;;;17.60;47.21
73455;BME280;61690;51.824;6.306;2023-04-10T01:58:01;101978.31;;;17.61;47.26
73455;BME280;61690;51.824;6.306;2023-04-10T02:00:27;101983.50;;;17.62;47.13
73455;BME280;61690;51.824;6.306;2023-04-10T02:02:52;101976.50;;;17.61;47.31
73455;BME280;61690;51.824;6.306;2023-04-10T02:05:18;101973.03;;;17.61;47.13
73455;BME280;61690;51.824;6.306;2023-04-10T02:08:01;101968.63;;;17.61;46.83
73455;BME280;61690;51.824;6.306;2023-04-10T02:10:49;101972.25;;;17.59;47.19
73455;BME280;61690;51.824;6.306;2023-04-10T02:13:20;101970.41;;;17.61;47.33
73455;BME280;61690;51.824;6.306;2023-04-10T02:15:46;101967.91;;;17.58;47.02
73455;BME280;61690;51.824;6.306;2023-04-10T02:18:15;101972.19;;;17.60;47.11
73455;BME280;61690;51.824;6.306;2023-04-10T02:20:43;101973.94;;;17.60;47.21
73455;BME280;61690;51.824;6.306;2023-04-10T02:23:08;101972.25;;;17.59;47.09
73455;BME280;61690;51.824;6.306;2023-04-10T02:25:35;101971.31;;;17.60;47.15
73455;BME280;61690;51.824;6.306;2023-04-10T02:28:04;101964.16;;;17.63;47.22
73455;BME280;61690;51.824;6.306;2023-04-10T02:30:30;101961.72;;;17.59;47.25
73455;BME280;61690;51.824;6.306;2023-04-10T02:32:57;101966.06;;;17.60;46.83
73455;BME280;61690;51.824;6.306;2023-04-10T02:35:23;101973.03;;;17.61;46.87
73455;BME280;61690;51.824;6.306;2023-04-10T02:37:49;101961.84;;;17.56;47.01
73455;BME280;61690;51.824;6.306;2023-04-10T02:40:15;101959.94;;;17.59;47.24
73455;BME280;61690;51.824;6.306;2023-04-10T02:42:41;101959.81;;;17.62;46.81
73455;BME280;61690;51.824;6.306;2023-04-10T02:45:08;101954.69;;;17.59;46.81
73455;BME280;61690;51.824;6.306;2023-04-10T02:47:33;101949.47;;;17.58;46.80
73455;BME280;61690;51.824;6.306;2023-04-10T02:49:59;101942.66;;;17.54;47.59
73455;BME280;61690;51.824;6.306;2023-04-10T02:52:24;101938.91;;;17.59;46.91
73455;BME280;61690;51.824;6.306;2023-04-10T02:54:50;101939.03;;;17.56;47.22
73455;BME280;61690;51.824;6.306;2023-04-10T02:57:16;101940.63;;;17.60;47.33
73455;BME280;61690;51.824;6.306;2023-04-10T02:59:41;101934.53;;;17.58;46.92
73455;BME280;61690;51.824;6.306;2023-04-10T03:02:08;101935.25;;;17.62;46.69
73455;BME280;61690;51.824;6.306;2023-04-10T03:04:34;101933.41;;;17.64;46.98
73455;BME280;61690;51.824;6.306;2023-04-10T03:07:02;101936.22;;;17.61;46.64
73455;BME280;61690;51.824;6.306;2023-04-10T03:09:28;101932.63;;;17.62;47.22
73455;BME280;61690;51.824;6.306;2023-04-10T03:11:55;101932.94;;;17.75;46.50
73455;BME280;61690;51.824;6.306;2023-04-10T03:14:20;101936.53;;;17.93;46.55
73455;BME280;61690;51.824;6.306;2023-04-10T03:16:45;101928.88;;;18.07;46.15
73455;BME280;61690;51.824;6.306;2023-04-10T03:19:12;101932.63;;;18.20;45.67
73455;BME280;61690;51.824;6.306;2023-04-10T03:21:37;101920.88;;;18.28;45.12
73455;BME280;61690;51.824;6.306;2023-04-10T03:24:03;101918.78;;;18.34;45.26
73455;BME280;61690;51.824;6.306;2023-04-10T03:26:29;101921.13;;;18.40;45.29
73455;BME280;61690;51.824;6.306;2023-04-10T03:28:55;101908.47;;;18.49;45.42
73455;BME280;61690;51.824;6.306;2023-04-10T03:31:20;101906.28;;;18.57;44.98
73455;BME280;61690;51.824;6.306;2023-04-10T03:33:46;101907.91;;;18.59;45.16
73455;BME280;61690;51.824;6.306;2023-04-10T03:36:11;101911.13;;;18.66;44.73
73455;BME280;61690;51.824;6.306;2023-04-10T03:38:36;101909.97;;;18.72;45.08
73455;BME280;61690;51.824;6.306;2023-04-10T03:41:02;101908.94;;;18.74;44.88
73455;BME280;61690;51.824;6.306;2023-04-10T03:43:28;101914.69;;;18.83;44.79
73455;BME280;61690;51.824;6.306;2023-04-10T03:45:54;101911.94;;;18.86;44.82
73455;BME280;61690;51.824;6.306;2023-04-10T03:48:19;101912.63;;;18.89;44.95
73455;BME280;61690;51.824;6.306;2023-04-10T03:50:46;101903.63;;;18.93;44.77
73455;BME280;61690;51.824;6.306;2023-04-10T03:53:12;101916.56;;;18.98;44.59
73455;BME280;61690;51.824;6.306;2023-04-10T03:55:37;101903.25;;;19.01;44.17
73455;BME280;61690;51.824;6.306;2023-04-10T03:58:04;101907.41;;;19.05;44.55
73455;BME280;61690;51.824;6.306;2023-04-10T04:00:29;101905.41;;;19.10;44.20
73455;BME280;61690;51.824;6.306;2023-04-10T04:02:55;101908.63;;;19.15;44.12
73455;BME280;61690;51.824;6.306;2023-04-10T04:05:20;101905.00;;;19.18;44.12
73455;BME280;61690;51.824;6.306;2023-04-10T04:07:46;101901.34;;;19.20;44.21
73455;BME280;61690;51.824;6.306;2023-04-10T04:10:11;101905.44;;;19.26;44.34
73455;BME280;61690;51.824;6.306;2023-04-10T04:12:37;101893.88;;;19.29;43.90
73455;BME280;61690;51.824;6.306;2023-04-10T04:15:02;101892.78;;;19.33;43.94
73455;BME280;61690;51.824;6.306;2023-04-10T04:17:29;101889.06;;;19.37;44.11
73455;BME280;61690;51.824;6.306;2023-04-10T04:19:54;101890.69;;;19.39;43.85
73455;BME280;61690;51.824;6.306;2023-04-10T04:22:19;101886.09;;;19.43;43.71
73455;BME280;61690;51.824;6.306;2023-04-10T04:24:45;101890.28;;;19.47;43.66
73455;BME280;61690;51.824;6.306;2023-04-10T04:27:10;101888.31;;;19.51;43.72
73455;BME280;61690;51.824;6.306;2023-04-10T04:29:36;101889.03;;;19.54;43.58
73455;BME280;61690;51.824;6.306;2023-04-10T04:32:02;101892.44;;;19.56;43.75
73455;BME280;61690;51.824;6.306;2023-04-10T04:34:27;101885.28;;;19.58;43.81
73455;BME280;61690;51.824;6.306;2023-04-10T04:36:52;101877.97;;;19.64;43.52
73455;BME280;61690;51.824;6.306;2023-04-10T04:39:17;101877.88;;;19.65;43.69
73455;BME280;61690;51.824;6.306;2023-04-10T04:41:47;101881.19;;;19.69;43.71
73455;BME280;61690;51.824;6.306;2023-04-10T04:44:12;101881.06;;;19.72;43.46
73455;BME280;61690;51.824;6.306;2023-04-10T04:46:37;101879.19;;;19.74;43.56
73455;BME280;61690;51.824;6.306;2023-04-10T04:49:03;101876.47;;;19.75;43.21
73455;BME280;61690;51.824;6.306;2023-04-10T04:51:28;101878.16;;;19.76;43.59
73455;BME280;61690;51.824;6.306;2023-04-10T04:53:53;101879.69;;;19.81;43.22
73455;BME280;61690;51.824;6.306;2023-04-10T04:56:20;101878.69;;;19.83;43.21
73455;BME280;61690;51.824;6.306;2023-04-10T04:58:45;101871.53;;;19.85;43.21
73455;BME280;61690;51.824;6.306;2023-04-10T05:01:12;101876.81;;;19.85;43.24
73455;BME280;61690;51.824;6.306;2023-04-10T05:03:37;101884.75;;;19.85;43.36
73455;BME280;61690;51.824;6.306;2023-04-10T05:06:04;101883.03;;;19.84;43.25
73455;BME280;61690;51.824;6.306;2023-04-10T05:08:30;101868.28;;;19.80;43.61
73455;BME280;61690;51.824;6.306;2023-04-10T05:10:56;101867.44;;;19.80;43.58
73455;BME280;61690;51.824;6.306;2023-04-10T05:13:22;101871.88;;;19.79;43.60
73455;BME280;61690;51.824;6.306;2023-04-10T05:15:47;101865.91;;;19.75;43.27
73455;BME280;61690;51.824;6.306;2023-04-10T05:18:16;101863.34;;;19.74;43.34
73455;BME280;61690;51.824;6.306;2023-04-10T05:20:45;101870.50;;;19.72;43.61
73455;BME280;61690;51.824;6.306;2023-04-10T05:23:12;101866.91;;;19.73;43.66
73455;BME280;61690;51.824;6.306;2023-04-10T05:25:37;101862.41;;;19.75;43.79
73455;BME280;61690;51.824;6.306;2023-04-10T05:28:02;101862.50;;;19.73;43.73
73455;BME280;61690;51.824;6.306;2023-04-10T05:30:28;101863.34;;;19.74;43.66
73455;BME280;61690;51.824;6.306;2023-04-10T05:32:54;101862.59;;;19.72;43.68
73455;BME280;61690;51.824;6.306;2023-04-10T05:35:20;101863.47;;;19.71;43.48
73455;BME280;61690;51.824;6.306;2023-04-10T05:37:45;101865.28;;;19.70;43.47
73455;BME280;61690;51.824;6.306;2023-04-10T05:40:10;101862.72;;;19.69;43.55
73455;BME280;61690;51.824;6.306;2023-04-10T05:42:37;101868.41;;;19.61;43.76
73455;BME280;61690;51.824;6.306;2023-04-10T05:45:04;101867.72;;;19.57;44.12
73455;BME280;61690;51.824;6.306;2023-04-10T05:47:30;101862.44;;;19.57;44.11
73455;BME280;61690;51.824;6.306;2023-04-10T05:49:55;101859.91;;;19.56;44.01
73455;BME280;61690;51.824;6.306;2023-04-10T05:52:21;101859.22;;;19.52;44.05
73455;BME280;61690;51.824;6.306;2023-04-10T05:54:53;101858.63;;;19.47;44.06
73455;BME280;61690;51.824;6.306;2023-04-10T05:57:20;101862.28;;;19.45;44.24
73455;BME280;61690;51.824;6.306;2023-04-10T05:59:46;101852.72;;;19.42;44.08
73455;BME280;61690;51.824;6.306;2023-04-10T06:02:12;101855.53;;;19.39;44.51
73455;BME280;61690;51.824;6.306;2023-04-10T06:04:37;101853.75;;;19.39;44.39
73455;BME280;61690;51.824;6.306;2023-04-10T06:07:02;101857.56;;;19.34;44.31
73455;BME280;61690;51.824;6.306;2023-04-10T06:09:30;101856.78;;;19.32;44.39
73455;BME280;61690;51.824;6.306;2023-04-10T06:11:58;101859.50;;;19.30;44.44
73455;BME280;61690;51.824;6.306;2023-04-10T06:14:23;101855.66;;;19.20;45.11
73455;BME280;61690;51.824;6.306;2023-04-10T06:16:49;101848.84;;;19.16;45.04
73455;BME280;61690;51.824;6.306;2023-04-10T06:19:14;101849.78;;;19.15;45.01
73455;BME280;61690;51.824;6.306;2023-04-10T06:21:40;101850.94;;;19.09;45.11
73455;BME280;61690;51.824;6.306;2023-04-10T06:24:06;101849.25;;;19.08;45.25
73455;BME280;61690;51.824;6.306;2023-04-10T06:26:32;101847.88;;;19.01;45.66
73455;BME280;61690;51.824;6.306;2023-04-10T06:28:57;101841.75;;;19.00;45.55
73455;BME280;61690;51.824;6.306;2023-04-10T06:31:23;101834.13;;;18.94;45.77
73455;BME280;61690;51.824;6.306;2023-04-10T06:33:49;101837.78;;;18.92;45.75
73455;BME280;61690;51.824;6.306;2023-04-10T06:36:15;101831.50;;;18.94;45.42
73455;BME280;61690;51.824;6.306;2023-04-10T06:38:41;101824.75;;;18.89;45.44
73455;BME280;61690;51.824;6.306;2023-04-10T06:41:07;101825.69;;;18.88;45.65
73455;BME280;61690;51.824;6.306;2023-04-10T06:43:33;101825.69;;;18.88;45.89
73455;BME280;61690;51.824;6.306;2023-04-10T06:45:59;101822.22;;;18.87;45.96
73455;BME280;61690;51.824;6.306;2023-04-10T06:48:25;101813.03;;;18.77;46.08
73455;BME280;61690;51.824;6.306;2023-04-10T06:50:50;101809.34;;;18.81;46.13
73455;BME280;61690;51.824;6.306;2023-04-10T06:53:17;101805.38;;;18.72;46.35
73455;BME280;61690;51.824;6.306;2023-04-10T06:55:43;101814.06;;;18.74;46.28
73455;BME280;61690;51.824;6.306;2023-04-10T06:58:11;101808.78;;;18.74;46.29
73455;BME280;61690;51.824;6.306;2023-04-10T07:00:38;101805.84;;;18.63;46.61
73455;BME280;61690;51.824;6.306;2023-04-10T07:03:04;101796.78;;;18.69;46.85
73455;BME280;61690;51.824;6.306;2023-04-10T07:05:29;101799.56;;;18.66;47.09
73455;BME280;61690;51.824;6.306;2023-04-10T07:07:56;101791.25;;;18.73;46.70
73455;BME280;61690;51.824;6.306;2023-04-10T07:10:22;101797.69;;;18.68;47.25
73455;BME280;61690;51.824;6.306;2023-04-10T07:12:47;101787.69;;;18.74;46.98
73455;BME280;61690;51.824;6.306;2023-04-10T07:15:12;101787.00;;;18.71;46.82
73455;BME280;61690;51.824;6.306;2023-04-10T07:17:37;101781.22;;;18.64;47.32
73455;BME280;61690;51.824;6.306;2023-04-10T07:20:03;101768.94;;;18.63;47.65
73455;BME280;61690;51.824;6.306;2023-04-10T07:22:30;101775.16;;;18.62;47.60
73455;BME280;61690;51.824;6.306;2023-04-10T07:24:58;101771.25;;;18.69;47.04
73455;BME280;61690;51.824;6.306;2023-04-10T07:27:26;101764.38;;;18.67;47.32
73455;BME280;61690;51.824;6.306;2023-04-10T07:29:54;101755.91;;;18.60;47.43
73455;BME280;61690;51.824;6.306;2023-04-10T07:32:21;101753.69;;;18.70;47.47
73455;BME280;61690;51.824;6.306;2023-04-10T07:34:46;101748.50;;;18.68;47.61
73455;BME280;61690;51.824;6.306;2023-04-10T07:37:12;101749.25;;;18.70;47.62
73455;BME280;61690;51.824;6.306;2023-04-10T07:39:39;101741.69;;;18.64;47.65
73455;BME280;61690;51.824;6.306;2023-04-10T07:42:05;101726.63;;;18.66;47.56
73455;BME280;61690;51.824;6.306;2023-04-10T07:44:30;101726.47;;;18.69;47.28
73455;BME280;61690;51.824;6.306;2023-04-10T07:46:55;101734.44;;;18.68;47.79
73455;BME280;61690;51.824;6.306;2023-04-10T07:49:24;101725.09;;;18.62;47.84
73455;BME280;61690;51.824;6.306;2023-04-10T07:51:49;101721.66;;;18.60;47.83
73455;BME280;61690;51.824;6.306;2023-04-10T07:54:14;101722.75;;;18.56;47.69
73455;BME280;61690;51.824;6.306;2023-04-10T07:56:40;101717.41;;;18.57;47.68
73455;BME280;61690;51.824;6.306;2023-04-10T07:59:07;101706.88;;;18.57;47.61
73455;BME280;61690;51.824;6.306;2023-04-10T08:01:32;101706.13;;;18.55;47.54
73455;BME280;61690;51.824;6.306;2023-04-10T08:03:58;101700.00;;;18.55;48.11
73455;BME280;61690;51.824;6.306;2023-04-10T08:06:24;101693.97;;;18.53;47.82
73455;BME280;61690;51.824;6.306;2023-04-10T08:08:54;101697.59;;;18.50;47.85
73455;BME280;61690;51.824;6.306;2023-04-10T08:11:24;101694.94;;;18.50;47.91
73455;BME280;61690;51.824;6.306;2023-04-10T08:13:51;101692.88;;;18.57;47.84
73455;BME280;61690;51.824;6.306;2023-04-10T08:18:46;101680.47;;;18.59;47.55
73455;BME280;61690;51.824;6.306;2023-04-10T08:21:12;101672.88;;;18.53;47.45
73455;BME280;61690;51.824;6.306;2023-04-10T08:23:37;101668.47;;;18.53;47.59
73455;BME280;61690;51.824;6.306;2023-04-10T08:26:02;101671.03;;;18.55;47.19
73455;BME280;61690;51.824;6.306;2023-04-10T08:28:29;101679.84;;;18.54;47.42
73455;BME280;61690;51.824;6.306;2023-04-10T08:30:56;101667.75;;;18.50;47.22
73455;BME280;61690;51.824;6.306;2023-04-10T08:33:21;101669.31;;;18.54;46.95
73455;BME280;61690;51.824;6.306;2023-04-10T08:35:48;101659.63;;;18.54;46.67
73455;BME280;61690;51.824;6.306;2023-04-10T08:38:14;101670.25;;;18.53;46.88
73455;BME280;61690;51.824;6.306;2023-04-10T08:40:40;101658.84;;;18.52;46.77
73455;BME280;61690;51.824;6.306;2023-04-10T08:43:08;101687.81;;;18.52;46.58
73455;BME280;61690;51.824;6.306;2023-04-10T08:45:34;101677.13;;;18.55;46.52
73455;BME280;61690;51.824;6.306;2023-04-10T08:48:01;101672.81;;;18.54;46.12
73455;BME280;61690;51.824;6.306;2023-04-10T08:50:32;101677.97;;;18.56;45.95
73455;BME280;61690;51.824;6.306;2023-04-10T08:53:04;101678.91;;;18.55;45.85
73455;BME280;61690;51.824;6.306;2023-04-10T08:55:32;101674.91;;;18.48;46.40
73455;BME280;61690;51.824;6.306;2023-04-10T08:57:59;101666.91;;;18.49;46.16
73455;BME280;61690;51.824;6.306;2023-04-10T09:00:24;101659.09;;;18.48;45.68
73455;BME280;61690;51.824;6.306;2023-04-10T09:02:50;101667.00;;;18.48;45.68
73455;BME280;61690;51.824;6.306;2023-04-10T09:05:23;101661.72;;;18.48;46.21
73455;BME280;61690;51.824;6.306;2023-04-10T09:07:50;101663.44;;;18.49;46.00
73455;BME280;61690;51.824;6.306;2023-04-10T09:10:15;101657.06;;;18.53;46.26
73455;BME280;61690;51.824;6.306;2023-04-10T09:12:46;101653.97;;;18.45;46.33
73455;BME280;61690;51.824;6.306;2023-04-10T09:15:14;101643.44;;;18.45;46.13
73455;BME280;61690;51.824;6.306;2023-04-10T09:18:07;101646.88;;;18.47;46.33
73455;BME280;61690;51.824;6.306;2023-04-10T09:20:52;101640.91;;;18.43;46.52
73455;BME280;61690;51.824;6.306;2023-04-10T09:23:20;101661.66;;;18.49;46.18
73455;BME280;61690;51.824;6.306;2023-04-10T09:25:46;101640.66;;;18.48;46.41
73455;BME280;61690;51.824;6.306;2023-04-10T09:28:11;101642.38;;;18.49;46.10
73455;BME280;61690;51.824;6.306;2023-04-10T09:30:38;101648.56;;;18.48;46.04
73455;BME280;61690;51.824;6.306;2023-04-10T09:33:24;101641.41;;;18.50;46.25
73455;BME280;61690;51.824;6.306;2023-04-10T09:35:51;101634.63;;;18.46;46.54
73455;BME280;61690;51.824;6.306;2023-04-10T09:38:19;101640.91;;;18.43;46.48
73455;BME280;61690;51.824;6.306;2023-04-10T09:40:46;101643.22;;;18.49;46.31
73455;BME280;61690;51.824;6.306;2023-04-10T09:43:25;101636.47;;;18.44;46.21
73455;BME280;61690;51.824;6.306;2023-04-10T09:45:53;101644.31;;;18.45;46.38
73455;BME280;61690;51.824;6.306;2023-04-10T09:48:21;101634.75;;;18.42;46.02
73455;BME280;61690;51.824;6.306;2023-04-10T09:50:46;101620.53;;;18.47;46.29
73455;BME280;61690;51.824;6.306;2023-04-10T09:53:14;101616.44;;;18.41;46.26
73455;BME280;61690;51.824;6.306;2023-04-10T09:55:42;101612.00;;;18.41;46.56
73455;BME280;61690;51.824;6.306;2023-04-10T09:58:08;101605.03;;;18.40;46.20
73455;BME280;61690;51.824;6.306;2023-04-10T10:00:56;101590.94;;;18.41;45.96
73455;BME280;61690;51.824;6.306;2023-04-10T10:03:23;101590.16;;;18.39;46.32
73455;BME280;61690;51.824;6.306;2023-04-10T10:05:50;101583.94;;;18.40;46.43
73455;BME280;61690;51.824;6.306;2023-04-10T10:08:16;101573.41;;;18.40;45.99
73455;BME280;61690;51.824;6.306;2023-04-10T10:10:50;101571.53;;;18.42;46.26
73455;BME280;61690;51.824;6.306;2023-04-10T10:13:23;101558.47;;;18.41;46.19
73455;BME280;61690;51.824;6.306;2023-04-10T10:19:12;101544.28;;;18.44;46.34
73455;BME280;61690;51.824;6.306;2023-04-10T10:21:43;101539.00;;;18.44;46.11
73455;BME280;61690;51.824;6.306;2023-04-10T10:26:46;101529.59;;;18.39;46.15
73455;BME280;61690;51.824;6.306;2023-04-10T10:29:14;101529.50;;;18.41;46.03
73455;BME280;61690;51.824;6.306;2023-04-10T10:31:40;101527.88;;;18.38;46.48
73455;BME280;61690;51.824;6.306;2023-04-10T10:34:06;101519.19;;;18.36;46.09
73455;BME280;61690;51.824;6.306;2023-04-10T10:36:35;101512.84;;;18.40;46.15
73455;BME280;61690;51.824;6.306;2023-04-10T10:39:33;101511.06;;;18.41;46.28
73455;BME280;61690;51.824;6.306;2023-04-10T10:42:33;101512.84;;;18.40;46.16
73455;BME280;61690;51.824;6.306;2023-04-10T10:45:14;101506.56;;;18.43;45.82
73455;BME280;61690;51.824;6.306;2023-04-10T10:47:44;101502.22;;;18.42;45.91
73455;BME280;61690;51.824;6.306;2023-04-10T10:50:12;101498.66;;;18.43;46.25
73455;BME280;61690;51.824;6.306;2023-04-10T10:52:48;101494.31;;;18.42;46.15
73455;BME280;61690;51.824;6.306;2023-04-10T10:58:08;101483.09;;;18.38;46.23
73455;BME280;61690;51.824;6.306;2023-04-10T11:01:05;101475.03;;;18.41;45.96
73455;BME280;61690;51.824;6.306;2023-04-10T11:03:43;101466.38;;;18.39;46.17
73455;BME280;61690;51.824;6.306;2023-04-10T11:06:11;101468.81;;;18.42;46.13
73455;BME280;61690;51.824;6.306;2023-04-10T11:08:48;101457.34;;;18.44;46.29
73455;BME280;61690;51.824;6.306;2023-04-10T11:11:22;101445.09;;;18.42;46.26
73455;BME280;61690;51.824;6.306;2023-04-10T11:16:41;101435.34;;;18.45;45.80
73455;BME280;61690;51.824;6.306;2023-04-10T11:19:09;101443.44;;;18.41;45.82
73455;BME280;61690;51.824;6.306;2023-04-10T11:22:02;101438.84;;;18.45;46.23
73455;BME280;61690;51.824;6.306;2023-04-10T11:24:58;101441.56;;;18.44;45.98
73455;BME280;61690;51.824;6.306;2023-04-10T11:27:39;101425.75;;;18.44;45.94
73455;BME280;61690;51.824;6.306;2023-04-10T11:30:34;101429.06;;;18.47;45.88
73455;BME280;61690;51.824;6.306;2023-04-10T11:33:04;101419.38;;;18.48;46.06
73455;BME280;61690;51.824;6.306;2023-04-10T11:35:30;101416.06;;;18.44;46.14
73455;BME280;61690;51.824;6.306;2023-04-10T11:38:29;101415.06;;;18.47;46.14
73455;BME280;61690;51.824;6.306;2023-04-10T11:40:57;101411.47;;;18.48;45.91
73455;BME280;61690;51.824;6.306;2023-04-10T11:43:23;101400.94;;;18.48;45.84
73455;BME280;61690;51.824;6.306;2023-04-10T11:45:49;101391.34;;;18.47;46.04
73455;BME280;61690;51.824;6.306;2023-04-10T11:48:14;101397.44;;;18.47;45.96
73455;BME280;61690;51.824;6.306;2023-04-10T11:50:42;101396.41;;;18.50;45.71
73455;BME280;61690;51.824;6.306;2023-04-10T11:53:23;101392.09;;;18.49;45.99
73455;BME280;61690;51.824;6.306;2023-04-10T11:55:48;101381.44;;;18.50;45.67
73455;BME280;61690;51.824;6.306;2023-04-10T11:58:21;101377.97;;;18.50;45.63
73455;BME280;61690;51.824;6.306;2023-04-10T12:03:33;101371.88;;;18.49;46.02
73455;BME280;61690;51.824;6.306;2023-04-10T12:06:01;101372.72;;;18.50;46.12
73455;BME280;61690;51.824;6.306;2023-04-10T12:08:37;101365.56;;;18.52;45.95
73455;BME280;61690;51.824;6.306;2023-04-10T12:11:06;101360.28;;;18.52;45.68
73455;BME280;61690;51.824;6.306;2023-04-10T12:13:37;101367.28;;;18.53;46.03
73455;BME280;61690;51.824;6.306;2023-04-10T12:16:06;101364.81;;;18.50;46.12
73455;BME280;61690;51.824;6.306;2023-04-10T12:18:32;101353.34;;;18.51;45.98
73455;BME280;61690;51.824;6.306;2023-04-10T12:20:58;101355.97;;;18.51;45.88
73455;BME280;61690;51.824;6.306;2023-04-10T12:23:26;101351.56;;;18.51;45.55
73455;BME280;61690;51.824;6.306;2023-04-10T12:26:05;101352.38;;;18.52;45.87
73455;BME280;61690;51.824;6.306;2023-04-10T12:28:32;101356.72;;;18.53;45.84
73455;BME280;61690;51.824;6.306;2023-04-10T12:31:00;101351.56;;;18.51;45.96
73455;BME280;61690;51.824;6.306;2023-04-10T12:33:28;101353.34;;;18.51;45.82
73455;BME280;61690;51.824;6.306;2023-04-10T12:35:57;101337.53;;;18.51;46.03
73455;BME280;61690;51.824;6.306;2023-04-10T12:38:40;101337.34;;;18.54;45.73
73455;BME280;61690;51.824;6.306;2023-04-10T12:41:06;101328.69;;;18.52;45.96
73455;BME280;61690;51.824;6.306;2023-04-10T12:43:37;101321.53;;;18.54;46.02
73455;BME280;61690;51.824;6.306;2023-04-10T12:46:08;101321.53;;;18.54;45.67
73455;BME280;61690;51.824;6.306;2023-04-10T12:48:34;101321.44;;;18.55;45.47
73455;BME280;61690;51.824;6.306;2023-04-10T12:51:00;101328.50;;;18.55;45.88
73455;BME280;61690;51.824;6.306;2023-04-10T12:53:26;101322.41;;;18.54;45.99
73455;BME280;61690;51.824;6.306;2023-04-10T12:56:03;101322.41;;;18.54;45.86
73455;BME280;61690;51.824;6.306;2023-04-10T12:58:41;101312.50;;;18.58;45.76
73455;BME280;61690;51.824;6.306;2023-04-10T13:01:08;101302.16;;;18.55;45.67
73455;BME280;61690;51.824;6.306;2023-04-10T13:03:35;101299.53;;;18.55;45.34
73455;BME280;61690;51.824;6.306;2023-04-10T13:06:01;101288.78;;;18.58;45.62
73455;BME280;61690;51.824;6.306;2023-04-10T13:08:27;101286.16;;;18.58;45.73
73455;BME280;61690;51.824;6.306;2023-04-10T13:11:01;101274.63;;;18.60;45.76
73455;BME280;61690;51.824;6.306;2023-04-10T13:13:31;101272.91;;;18.59;45.82
73455;BME280;61690;51.824;6.306;2023-04-10T13:15:59;101268.38;;;18.61;45.43
73455;BME280;61690;51.824;6.306;2023-04-10T13:18:27;101256.16;;;18.60;45.66
73455;BME280;61690;51.824;6.306;2023-04-10T13:20:52;101264.75;;;18.64;45.41
73455;BME280;61690;51.824;6.306;2023-04-10T13:23:18;101248.25;;;18.60;45.74